Amagi Galaxy — V7VE9 — position and weather

sailwx.info

Track history (hours):
 
Tides and Currents Weather Stations Pressure Air Temp Water Temp Dewpoint Dewpoint Depression Visibility Wind Speed Wind Dir Waves Ship Positions

Amagi Galaxy

Last reported at 2017-Oct-19 15:01 UTC. Time now 2017-Oct-19 15:19 UTC.
Position N 49°19' W 123°11'.

Length 152 m; draft 9.7 m.

Type: Ship (hazmat cat B). MMSI: 538004105.

Date/timePositionNaut miles runAvg speedWind from/ knotsBaromVisibWave heightAir tempDewpointWater temp
2017-Oct-19 15:01N 49°19' W 123°11'4 8.1
2017-Oct-19 14:31N 49°18' W 123°05'1 2.4
2017-Oct-19 14:01N 49°18' W 123°03'3 5.4
2017-Oct-19 13:30N 49°18' W 122°59'2 4.3
2017-Oct-19 13:01N 49°18' W 122°56'2 4.2
2017-Oct-19 12:31N 49°18' W 122°53'1 1.0
2017-Oct-19 11:58N 49°17' W 122°52'0 0.0
2017-Oct-19 11:28N 49°17' W 122°52'0 0.0
2017-Oct-19 10:52N 49°17' W 122°52'0 0.0
2017-Oct-19 10:25N 49°17' W 122°52'0 0.0
2017-Oct-19 09:58N 49°17' W 122°52'0 0.0
2017-Oct-19 09:25N 49°17' W 122°52'0 0.1
2017-Oct-19 08:58N 49°17' W 122°52'0 0.0
2017-Oct-19 08:28N 49°17' W 122°52'0 0.0
2017-Oct-19 07:58N 49°17' W 122°52'0 0.0
2017-Oct-19 07:25N 49°17' W 122°52'0 0.0
2017-Oct-19 06:55N 49°17' W 122°52'0 0.0
2017-Oct-19 06:28N 49°17' W 122°52'0 0.0
2017-Oct-19 05:58N 49°17' W 122°52'0 0.0
2017-Oct-19 05:28N 49°17' W 122°52'0 0.0
2017-Oct-19 04:58N 49°17' W 122°52'0 0.0
2017-Oct-19 04:28N 49°17' W 122°52'0 0.0
2017-Oct-19 03:58N 49°17' W 122°52'0 0.0
2017-Oct-19 03:28N 49°17' W 122°52'0 0.0
2017-Oct-19 02:58N 49°17' W 122°52'0 0.0
2017-Oct-19 02:28N 49°17' W 122°52'0 0.0
2017-Oct-19 01:58N 49°17' W 122°52'0 0.0
2017-Oct-19 01:25N 49°17' W 122°52'0 0.0
2017-Oct-19 00:58N 49°17' W 122°52'0 0.0
2017-Oct-19 00:28N 49°17' W 122°52'0 0.0
2017-Oct-18 23:58N 49°17' W 122°52'0 0.0
2017-Oct-18 23:28N 49°17' W 122°52'0 0.0
2017-Oct-18 22:58N 49°17' W 122°52'0 0.0
2017-Oct-18 22:28N 49°17' W 122°52'0 0.0
2017-Oct-18 21:58N 49°17' W 122°52'0 0.0
2017-Oct-18 21:28N 49°17' W 122°52'0 0.0
2017-Oct-18 20:58N 49°17' W 122°52'0 0.0
2017-Oct-18 20:28N 49°17' W 122°52'0 0.0
2017-Oct-18 19:58N 49°17' W 122°52'0 0.0
2017-Oct-18 19:28N 49°17' W 122°52'0 0.0
2017-Oct-18 18:55N 49°17' W 122°52'0 0.0
2017-Oct-18 18:28N 49°17' W 122°52'0 0.0
2017-Oct-18 17:58N 49°17' W 122°52'0 0.0
2017-Oct-18 17:28N 49°17' W 122°52'0 0.0
2017-Oct-18 16:58N 49°17' W 122°52'0 0.0
2017-Oct-18 16:28N 49°17' W 122°52'0 0.0
2017-Oct-18 15:49N 49°17' W 122°52'0 0.0
2017-Oct-18 15:28N 49°17' W 122°52'0 0.0
2017-Oct-18 14:58N 49°17' W 122°52'0 0.0
2017-Oct-18 13:58N 49°17' W 122°52'0 0.0
2017-Oct-18 13:28N 49°17' W 122°52'0 0.0
2017-Oct-18 12:58N 49°17' W 122°52'0 0.0
2017-Oct-18 12:28N 49°17' W 122°52'0 0.0
2017-Oct-18 11:58N 49°17' W 122°52'0 0.0
2017-Oct-18 11:28N 49°17' W 122°52'0 0.0
2017-Oct-18 10:58N 49°17' W 122°52'0 0.0
2017-Oct-18 10:28N 49°17' W 122°52'0 0.0
2017-Oct-18 09:58N 49°17' W 122°52'0 0.0
2017-Oct-18 09:25N 49°17' W 122°52'0 0.0
2017-Oct-18 08:55N 49°17' W 122°52'0 0.0
2017-Oct-18 08:28N 49°17' W 122°52'0 0.0
2017-Oct-18 07:58N 49°17' W 122°52'0 0.6
2017-Oct-18 07:31N 49°18' W 122°52'2 4.7
2017-Oct-18 07:01N 49°18' W 122°56'4 8.2
2017-Oct-18 06:30N 49°18' W 123°02'2 4.7
2017-Oct-18 06:00N 49°18' W 123°06'3 6.0
2017-Oct-18 05:30N 49°19' W 123°10'3 6.2
2017-Oct-18 05:00N 49°18' W 123°15'4 7.0
2017-Oct-18 04:30N 49°16' W 123°18'510.8
2017-Oct-18 04:00N 49°10' W 123°20'611.6
2017-Oct-18 03:30N 49°04' W 123°20'611.9
2017-Oct-18 03:01N 48°60' W 123°14'611.9
2017-Oct-18 02:30N 48°56' W 123°08'612.1
2017-Oct-18 02:00N 48°51' W 123°02'5 9.7
2017-Oct-18 01:30N 48°46' W 123°02'612.2
2017-Oct-18 01:01N 48°43' W 123°09'5 9.5
2017-Oct-18 00:31N 48°39' W 123°14'612.9
2017-Oct-18 00:01N 48°33' W 123°12'612.7
2017-Oct-17 23:30N 48°27' W 123°10'612.4
2017-Oct-17 23:00N 48°22' W 123°17'3 5.5
2017-Oct-17 22:30N 48°21' W 123°20'0 0.1
2017-Oct-17 21:59N 48°21' W 123°20'0 0.0
2017-Oct-17 21:29N 48°21' W 123°20'0 0.0
2017-Oct-17 20:59N 48°21' W 123°20'0 0.0
2017-Oct-17 20:29N 48°21' W 123°20'0 0.1
2017-Oct-17 19:59N 48°21' W 123°20'0 0.0
2017-Oct-17 19:26N 48°21' W 123°20'0 0.0
2017-Oct-17 18:59N 48°21' W 123°20'0 0.0
2017-Oct-17 18:29N 48°21' W 123°20'0 0.0
2017-Oct-17 17:59N 48°21' W 123°20'0 0.0
2017-Oct-17 17:29N 48°21' W 123°20'0 0.1
2017-Oct-17 16:59N 48°21' W 123°20'0 0.2
2017-Oct-17 16:29N 48°21' W 123°21'0 0.2
2017-Oct-17 15:59N 48°21' W 123°21'0 0.1
2017-Oct-17 15:29N 48°21' W 123°21'0 0.1
2017-Oct-17 14:59N 48°21' W 123°21'0 0.1
2017-Oct-17 14:29N 48°21' W 123°21'0 0.1
2017-Oct-17 13:59N 48°21' W 123°21'0 0.1
2017-Oct-17 13:29N 48°21' W 123°21'0 0.0
2017-Oct-17 12:59N 48°21' W 123°21'0 0.1
2017-Oct-17 12:29N 48°21' W 123°21'0 0.1
2017-Oct-17 11:56N 48°21' W 123°21'0 0.1
2017-Oct-17 11:29N 48°21' W 123°21'0 0.2
2017-Oct-17 10:59N 48°21' W 123°20'0 0.1
2017-Oct-17 10:26N 48°21' W 123°20'0 0.1
2017-Oct-17 09:59N 48°21' W 123°20'0 0.0
2017-Oct-17 09:29N 48°21' W 123°20'0 0.0
2017-Oct-17 08:59N 48°21' W 123°20'0 0.1
2017-Oct-17 08:29N 48°21' W 123°20'0 0.0
2017-Oct-17 07:56N 48°21' W 123°20'0 0.1
2017-Oct-17 07:26N 48°21' W 123°21'0 0.1
2017-Oct-17 06:56N 48°21' W 123°21'0 0.1
2017-Oct-17 06:20N 48°21' W 123°21'0 0.0
2017-Oct-17 05:59N 48°21' W 123°21'0 0.0
2017-Oct-17 05:23N 48°21' W 123°21'0 0.0
2017-Oct-17 04:59N 48°21' W 123°21'0 0.1
2017-Oct-17 04:29N 48°21' W 123°21'0 0.0
2017-Oct-17 03:59N 48°21' W 123°21'0 0.1
2017-Oct-17 03:14N 48°21' W 123°21'0 0.0
2017-Oct-17 02:59N 48°21' W 123°21'0 0.1
2017-Oct-17 02:29N 48°21' W 123°21'0 0.0
2017-Oct-17 01:59N 48°21' W 123°21'0 0.0
2017-Oct-17 01:29N 48°21' W 123°21'0 0.1
2017-Oct-17 00:59N 48°21' W 123°21'0 0.0
2017-Oct-17 00:29N 48°21' W 123°21'0 0.0
2017-Oct-16 23:59N 48°21' W 123°21'0 0.0
2017-Oct-16 23:29N 48°21' W 123°21'0 0.1
2017-Oct-16 22:59N 48°21' W 123°21'0 0.2
2017-Oct-16 22:26N 48°21' W 123°20'0 0.1
2017-Oct-16 21:59N 48°21' W 123°20'0 0.0
2017-Oct-16 21:29N 48°21' W 123°20'0 0.0
2017-Oct-16 20:59N 48°21' W 123°20'0 0.0
2017-Oct-16 20:29N 48°21' W 123°20'0 0.1
2017-Oct-16 19:59N 48°21' W 123°20'0 0.2
2017-Oct-16 19:29N 48°21' W 123°21'0 0.2
2017-Oct-16 18:56N 48°21' W 123°21'0 0.0
2017-Oct-16 18:23N 48°21' W 123°21'0 0.0
2017-Oct-16 17:59N 48°21' W 123°21'0 0.0
2017-Oct-16 17:29N 48°21' W 123°21'0 0.0
2017-Oct-16 16:53N 48°21' W 123°21'0 0.1
2017-Oct-16 16:29N 48°21' W 123°21'0 0.1
2017-Oct-16 15:59N 48°21' W 123°21'0 0.1
2017-Oct-16 15:29N 48°21' W 123°21'0 0.1
2017-Oct-16 14:59N 48°21' W 123°21'0 0.1
2017-Oct-16 13:59N 48°21' W 123°21'0 0.0
2017-Oct-16 13:29N 48°21' W 123°21'0 0.0
2017-Oct-16 12:59N 48°21' W 123°21'0 0.0
2017-Oct-16 12:29N 48°21' W 123°21'0 0.0
2017-Oct-16 11:59N 48°21' W 123°21'0 0.4
2017-Oct-16 11:29N 48°21' W 123°20'0 0.1
2017-Oct-16 10:59N 48°21' W 123°20'0 0.0
2017-Oct-16 10:29N 48°21' W 123°20'0 0.0
2017-Oct-16 09:59N 48°21' W 123°20'0 0.0
2017-Oct-16 09:29N 48°21' W 123°20'0 0.1
2017-Oct-16 08:59N 48°21' W 123°20'0 0.1
2017-Oct-16 08:29N 48°21' W 123°20'0 0.0
2017-Oct-16 07:59N 48°21' W 123°20'0 0.1
2017-Oct-16 07:29N 48°21' W 123°21'0 0.1
2017-Oct-16 06:59N 48°21' W 123°21'0 0.0
2017-Oct-16 06:29N 48°21' W 123°21'0 0.2
2017-Oct-16 05:59N 48°21' W 123°20'0 0.2
2017-Oct-16 05:29N 48°21' W 123°21'0 0.2
2017-Oct-16 04:59N 48°21' W 123°21'0 0.0
2017-Oct-16 04:26N 48°21' W 123°21'0 0.0
2017-Oct-16 03:59N 48°21' W 123°21'0 0.0
2017-Oct-16 03:29N 48°21' W 123°21'0 0.0
2017-Oct-16 02:59N 48°21' W 123°21'0 0.1
2017-Oct-16 02:29N 48°21' W 123°21'0 0.0
2017-Oct-16 01:59N 48°21' W 123°21'0 0.1
2017-Oct-16 01:29N 48°21' W 123°21'0 0.1
2017-Oct-16 00:56N 48°21' W 123°21'0 0.0
2017-Oct-16 00:29N 48°21' W 123°21'0 0.1
2017-Oct-15 23:59N 48°21' W 123°21'0 0.1
2017-Oct-15 23:29N 48°21' W 123°21'0 0.1
2017-Oct-15 22:59N 48°21' W 123°21'0 0.2
2017-Oct-15 22:29N 48°21' W 123°20'0 0.0
2017-Oct-15 21:59N 48°21' W 123°20'0 0.1
2017-Oct-15 21:29N 48°21' W 123°20'0 0.1
2017-Oct-15 20:59N 48°21' W 123°20'0 0.1
2017-Oct-15 20:29N 48°21' W 123°20'0 0.1
2017-Oct-15 19:59N 48°21' W 123°20'0 0.1
2017-Oct-15 19:29N 48°21' W 123°20'0 0.0
2017-Oct-15 18:59N 48°21' W 123°20'0 0.1
2017-Oct-15 18:29N 48°21' W 123°20'0 0.2
2017-Oct-15 17:59N 48°21' W 123°20'0 0.1
2017-Oct-15 17:29N 48°21' W 123°20'0 0.1
2017-Oct-15 17:00N 48°21' W 123°21'0 0.2
2017-Oct-15 16:30N 48°21' W 123°21'0 0.5
2017-Oct-15 16:00N 48°21' W 123°21'3 5.7
2017-Oct-15 15:30N 48°19' W 123°24'610.9
2017-Oct-15 15:00N 48°14' W 123°28'9 9.4
2017-Oct-15 14:00N 48°13' W 123°41'5 9.8
2017-Oct-15 13:30N 48°14' W 123°49'510.2
2017-Oct-15 13:00N 48°14' W 123°57'610.7
2017-Oct-15 12:29N 48°16' W 124°04'510.3
2017-Oct-15 12:00N 48°18' W 124°11'510.3
2017-Oct-15 11:30N 48°21' W 124°18'510.2
2017-Oct-15 11:00N 48°23' W 124°24'510.4
2017-Oct-15 10:30N 48°25' W 124°32'5 9.8
2017-Oct-15 10:00N 48°27' W 124°38'5 9.7
2017-Oct-15 09:30N 48°29' W 124°45'510.8
2017-Oct-15 09:00N 48°29' W 124°53'510.8
2017-Oct-15 08:30N 48°29' W 125°01'610.8
2017-Oct-15 07:59N 48°29' W 125°10'511.0
2017-Oct-15 07:30N 48°29' W 125°18'610.9
2017-Oct-15 07:00N 48°29' W 125°26'510.9
2017-Oct-15 06:30N 48°29' W 125°34'510.7
2017-Oct-15 06:00N 48°29' W 125°42'510.3
2017-Oct-15 05:30N 48°29' W 125°50'510.8
2017-Oct-15 05:00N 48°29' W 125°58'510.7
2017-Oct-15 04:30N 48°29' W 126°06'611.1
2017-Oct-15 04:00N 48°29' W 126°15'611.2
2017-Oct-15 03:26N 48°29' W 126°24'  
Track history (hours):
 
Tides and Currents Weather Stations Pressure Air Temp Water Temp Dewpoint Dewpoint Depression Visibility Wind Speed Wind Dir Waves Ship Positions

Amagi Galaxy

Last reported at 2017-Oct-19 15:01 UTC. Time now 2017-Oct-19 15:19 UTC.
Position N 49°19' W 123°11'.

Length 152 m; draft 9.7 m.

Type: Ship (hazmat cat B). MMSI: 538004105.

Date/timePositionNaut miles runAvg speedWind from/ knotsBaromVisibWave heightAir tempDewpointWater temp
2017-Oct-19 15:01N 49°19' W 123°11'4 8.1
2017-Oct-19 14:31N 49°18' W 123°05'1 2.4
2017-Oct-19 14:01N 49°18' W 123°03'3 5.4
2017-Oct-19 13:30N 49°18' W 122°59'2 4.3
2017-Oct-19 13:01N 49°18' W 122°56'2 4.2
2017-Oct-19 12:31N 49°18' W 122°53'1 1.0
2017-Oct-19 11:58N 49°17' W 122°52'0 0.0
2017-Oct-19 11:28N 49°17' W 122°52'0 0.0
2017-Oct-19 10:52N 49°17' W 122°52'0 0.0
2017-Oct-19 10:25N 49°17' W 122°52'0 0.0
2017-Oct-19 09:58N 49°17' W 122°52'0 0.0
2017-Oct-19 09:25N 49°17' W 122°52'0 0.1
2017-Oct-19 08:58N 49°17' W 122°52'0 0.0
2017-Oct-19 08:28N 49°17' W 122°52'0 0.0
2017-Oct-19 07:58N 49°17' W 122°52'0 0.0
2017-Oct-19 07:25N 49°17' W 122°52'0 0.0
2017-Oct-19 06:55N 49°17' W 122°52'0 0.0
2017-Oct-19 06:28N 49°17' W 122°52'0 0.0
2017-Oct-19 05:58N 49°17' W 122°52'0 0.0
2017-Oct-19 05:28N 49°17' W 122°52'0 0.0
2017-Oct-19 04:58N 49°17' W 122°52'0 0.0
2017-Oct-19 04:28N 49°17' W 122°52'0 0.0
2017-Oct-19 03:58N 49°17' W 122°52'0 0.0
2017-Oct-19 03:28N 49°17' W 122°52'0 0.0
2017-Oct-19 02:58N 49°17' W 122°52'0 0.0
2017-Oct-19 02:28N 49°17' W 122°52'0 0.0
2017-Oct-19 01:58N 49°17' W 122°52'0 0.0
2017-Oct-19 01:25N 49°17' W 122°52'0 0.0
2017-Oct-19 00:58N 49°17' W 122°52'0 0.0
2017-Oct-19 00:28N 49°17' W 122°52'0 0.0
2017-Oct-18 23:58N 49°17' W 122°52'0 0.0
2017-Oct-18 23:28N 49°17' W 122°52'0 0.0
2017-Oct-18 22:58N 49°17' W 122°52'0 0.0
2017-Oct-18 22:28N 49°17' W 122°52'0 0.0
2017-Oct-18 21:58N 49°17' W 122°52'0 0.0
2017-Oct-18 21:28N 49°17' W 122°52'0 0.0
2017-Oct-18 20:58N 49°17' W 122°52'0 0.0
2017-Oct-18 20:28N 49°17' W 122°52'0 0.0
2017-Oct-18 19:58N 49°17' W 122°52'0 0.0
2017-Oct-18 19:28N 49°17' W 122°52'0 0.0
2017-Oct-18 18:55N 49°17' W 122°52'0 0.0
2017-Oct-18 18:28N 49°17' W 122°52'0 0.0
2017-Oct-18 17:58N 49°17' W 122°52'0 0.0
2017-Oct-18 17:28N 49°17' W 122°52'0 0.0
2017-Oct-18 16:58N 49°17' W 122°52'0 0.0
2017-Oct-18 16:28N 49°17' W 122°52'0 0.0
2017-Oct-18 15:49N 49°17' W 122°52'0 0.0
2017-Oct-18 15:28N 49°17' W 122°52'0 0.0
2017-Oct-18 14:58N 49°17' W 122°52'0 0.0
2017-Oct-18 13:58N 49°17' W 122°52'0 0.0
2017-Oct-18 13:28N 49°17' W 122°52'0 0.0
2017-Oct-18 12:58N 49°17' W 122°52'0 0.0
2017-Oct-18 12:28N 49°17' W 122°52'0 0.0
2017-Oct-18 11:58N 49°17' W 122°52'0 0.0
2017-Oct-18 11:28N 49°17' W 122°52'0 0.0
2017-Oct-18 10:58N 49°17' W 122°52'0 0.0
2017-Oct-18 10:28N 49°17' W 122°52'0 0.0
2017-Oct-18 09:58N 49°17' W 122°52'0 0.0
2017-Oct-18 09:25N 49°17' W 122°52'0 0.0
2017-Oct-18 08:55N 49°17' W 122°52'0 0.0
2017-Oct-18 08:28N 49°17' W 122°52'0 0.0
2017-Oct-18 07:58N 49°17' W 122°52'0 0.6
2017-Oct-18 07:31N 49°18' W 122°52'2 4.7
2017-Oct-18 07:01N 49°18' W 122°56'4 8.2
2017-Oct-18 06:30N 49°18' W 123°02'2 4.7
2017-Oct-18 06:00N 49°18' W 123°06'3 6.0
2017-Oct-18 05:30N 49°19' W 123°10'3 6.2
2017-Oct-18 05:00N 49°18' W 123°15'4 7.0
2017-Oct-18 04:30N 49°16' W 123°18'510.8
2017-Oct-18 04:00N 49°10' W 123°20'611.6
2017-Oct-18 03:30N 49°04' W 123°20'611.9
2017-Oct-18 03:01N 48°60' W 123°14'611.9
2017-Oct-18 02:30N 48°56' W 123°08'612.1
2017-Oct-18 02:00N 48°51' W 123°02'5 9.7
2017-Oct-18 01:30N 48°46' W 123°02'612.2
2017-Oct-18 01:01N 48°43' W 123°09'5 9.5
2017-Oct-18 00:31N 48°39' W 123°14'612.9
2017-Oct-18 00:01N 48°33' W 123°12'612.7
2017-Oct-17 23:30N 48°27' W 123°10'612.4
2017-Oct-17 23:00N 48°22' W 123°17'3 5.5
2017-Oct-17 22:30N 48°21' W 123°20'0 0.1
2017-Oct-17 21:59N 48°21' W 123°20'0 0.0
2017-Oct-17 21:29N 48°21' W 123°20'0 0.0
2017-Oct-17 20:59N 48°21' W 123°20'0 0.0
2017-Oct-17 20:29N 48°21' W 123°20'0 0.1
2017-Oct-17 19:59N 48°21' W 123°20'0 0.0
2017-Oct-17 19:26N 48°21' W 123°20'0 0.0
2017-Oct-17 18:59N 48°21' W 123°20'0 0.0
2017-Oct-17 18:29N 48°21' W 123°20'0 0.0
2017-Oct-17 17:59N 48°21' W 123°20'0 0.0
2017-Oct-17 17:29N 48°21' W 123°20'0 0.1
2017-Oct-17 16:59N 48°21' W 123°20'0 0.2
2017-Oct-17 16:29N 48°21' W 123°21'0 0.2
2017-Oct-17 15:59N 48°21' W 123°21'0 0.1
2017-Oct-17 15:29N 48°21' W 123°21'0 0.1
2017-Oct-17 14:59N 48°21' W 123°21'0 0.1
2017-Oct-17 14:29N 48°21' W 123°21'0 0.1
2017-Oct-17 13:59N 48°21' W 123°21'0 0.1
2017-Oct-17 13:29N 48°21' W 123°21'0 0.0
2017-Oct-17 12:59N 48°21' W 123°21'0 0.1
2017-Oct-17 12:29N 48°21' W 123°21'0 0.1
2017-Oct-17 11:56N 48°21' W 123°21'0 0.1
2017-Oct-17 11:29N 48°21' W 123°21'0 0.2
2017-Oct-17 10:59N 48°21' W 123°20'0 0.1
2017-Oct-17 10:26N 48°21' W 123°20'0 0.1
2017-Oct-17 09:59N 48°21' W 123°20'0 0.0
2017-Oct-17 09:29N 48°21' W 123°20'0 0.0
2017-Oct-17 08:59N 48°21' W 123°20'0 0.1
2017-Oct-17 08:29N 48°21' W 123°20'0 0.0
2017-Oct-17 07:56N 48°21' W 123°20'0 0.1
2017-Oct-17 07:26N 48°21' W 123°21'0 0.1
2017-Oct-17 06:56N 48°21' W 123°21'0 0.1
2017-Oct-17 06:20N 48°21' W 123°21'0 0.0
2017-Oct-17 05:59N 48°21' W 123°21'0 0.0
2017-Oct-17 05:23N 48°21' W 123°21'0 0.0
2017-Oct-17 04:59N 48°21' W 123°21'0 0.1
2017-Oct-17 04:29N 48°21' W 123°21'0 0.0
2017-Oct-17 03:59N 48°21' W 123°21'0 0.1
2017-Oct-17 03:14N 48°21' W 123°21'0 0.0
2017-Oct-17 02:59N 48°21' W 123°21'0 0.1
2017-Oct-17 02:29N 48°21' W 123°21'0 0.0
2017-Oct-17 01:59N 48°21' W 123°21'0 0.0
2017-Oct-17 01:29N 48°21' W 123°21'0 0.1
2017-Oct-17 00:59N 48°21' W 123°21'0 0.0
2017-Oct-17 00:29N 48°21' W 123°21'0 0.0
2017-Oct-16 23:59N 48°21' W 123°21'0 0.0
2017-Oct-16 23:29N 48°21' W 123°21'0 0.1
2017-Oct-16 22:59N 48°21' W 123°21'0 0.2
2017-Oct-16 22:26N 48°21' W 123°20'0 0.1
2017-Oct-16 21:59N 48°21' W 123°20'0 0.0
2017-Oct-16 21:29N 48°21' W 123°20'0 0.0
2017-Oct-16 20:59N 48°21' W 123°20'0 0.0
2017-Oct-16 20:29N 48°21' W 123°20'0 0.1
2017-Oct-16 19:59N 48°21' W 123°20'0 0.2
2017-Oct-16 19:29N 48°21' W 123°21'0 0.2
2017-Oct-16 18:56N 48°21' W 123°21'0 0.0
2017-Oct-16 18:23N 48°21' W 123°21'0 0.0
2017-Oct-16 17:59N 48°21' W 123°21'0 0.0
2017-Oct-16 17:29N 48°21' W 123°21'0 0.0
2017-Oct-16 16:53N 48°21' W 123°21'0 0.1
2017-Oct-16 16:29N 48°21' W 123°21'0 0.1
2017-Oct-16 15:59N 48°21' W 123°21'0 0.1
2017-Oct-16 15:29N 48°21' W 123°21'0 0.1
2017-Oct-16 14:59N 48°21' W 123°21'0 0.1
2017-Oct-16 13:59N 48°21' W 123°21'0 0.0
2017-Oct-16 13:29N 48°21' W 123°21'0 0.0
2017-Oct-16 12:59N 48°21' W 123°21'0 0.0
2017-Oct-16 12:29N 48°21' W 123°21'0 0.0
2017-Oct-16 11:59N 48°21' W 123°21'0 0.4
2017-Oct-16 11:29N 48°21' W 123°20'0 0.1
2017-Oct-16 10:59N 48°21' W 123°20'0 0.0
2017-Oct-16 10:29N 48°21' W 123°20'0 0.0
2017-Oct-16 09:59N 48°21' W 123°20'0 0.0
2017-Oct-16 09:29N 48°21' W 123°20'0 0.1
2017-Oct-16 08:59N 48°21' W 123°20'0 0.1
2017-Oct-16 08:29N 48°21' W 123°20'0 0.0
2017-Oct-16 07:59N 48°21' W 123°20'0 0.1
2017-Oct-16 07:29N 48°21' W 123°21'0 0.1
2017-Oct-16 06:59N 48°21' W 123°21'0 0.0
2017-Oct-16 06:29N 48°21' W 123°21'0 0.2
2017-Oct-16 05:59N 48°21' W 123°20'0 0.2
2017-Oct-16 05:29N 48°21' W 123°21'0 0.2
2017-Oct-16 04:59N 48°21' W 123°21'0 0.0
2017-Oct-16 04:26N 48°21' W 123°21'0 0.0
2017-Oct-16 03:59N 48°21' W 123°21'0 0.0
2017-Oct-16 03:29N 48°21' W 123°21'0 0.0
2017-Oct-16 02:59N 48°21' W 123°21'0 0.1
2017-Oct-16 02:29N 48°21' W 123°21'0 0.0
2017-Oct-16 01:59N 48°21' W 123°21'0 0.1
2017-Oct-16 01:29N 48°21' W 123°21'0 0.1
2017-Oct-16 00:56N 48°21' W 123°21'0 0.0
2017-Oct-16 00:29N 48°21' W 123°21'0 0.1
2017-Oct-15 23:59N 48°21' W 123°21'0 0.1
2017-Oct-15 23:29N 48°21' W 123°21'0 0.1
2017-Oct-15 22:59N 48°21' W 123°21'0 0.2
2017-Oct-15 22:29N 48°21' W 123°20'0 0.0
2017-Oct-15 21:59N 48°21' W 123°20'0 0.1
2017-Oct-15 21:29N 48°21' W 123°20'0 0.1
2017-Oct-15 20:59N 48°21' W 123°20'0 0.1
2017-Oct-15 20:29N 48°21' W 123°20'0 0.1
2017-Oct-15 19:59N 48°21' W 123°20'0 0.1
2017-Oct-15 19:29N 48°21' W 123°20'0 0.0
2017-Oct-15 18:59N 48°21' W 123°20'0 0.1
2017-Oct-15 18:29N 48°21' W 123°20'0 0.2
2017-Oct-15 17:59N 48°21' W 123°20'0 0.1
2017-Oct-15 17:29N 48°21' W 123°20'0 0.1
2017-Oct-15 17:00N 48°21' W 123°21'0 0.2
2017-Oct-15 16:30N 48°21' W 123°21'0 0.5
2017-Oct-15 16:00N 48°21' W 123°21'3 5.7
2017-Oct-15 15:30N 48°19' W 123°24'610.9
2017-Oct-15 15:00N 48°14' W 123°28'9 9.4
2017-Oct-15 14:00N 48°13' W 123°41'5 9.8
2017-Oct-15 13:30N 48°14' W 123°49'510.2
2017-Oct-15 13:00N 48°14' W 123°57'610.7
2017-Oct-15 12:29N 48°16' W 124°04'510.3
2017-Oct-15 12:00N 48°18' W 124°11'510.3
2017-Oct-15 11:30N 48°21' W 124°18'510.2
2017-Oct-15 11:00N 48°23' W 124°24'510.4
2017-Oct-15 10:30N 48°25' W 124°32'5 9.8
2017-Oct-15 10:00N 48°27' W 124°38'5 9.7
2017-Oct-15 09:30N 48°29' W 124°45'510.8
2017-Oct-15 09:00N 48°29' W 124°53'510.8
2017-Oct-15 08:30N 48°29' W 125°01'610.8
2017-Oct-15 07:59N 48°29' W 125°10'511.0
2017-Oct-15 07:30N 48°29' W 125°18'610.9
2017-Oct-15 07:00N 48°29' W 125°26'510.9
2017-Oct-15 06:30N 48°29' W 125°34'510.7
2017-Oct-15 06:00N 48°29' W 125°42'510.3
2017-Oct-15 05:30N 48°29' W 125°50'510.8
2017-Oct-15 05:00N 48°29' W 125°58'510.7
2017-Oct-15 04:30N 48°29' W 126°06'611.1
2017-Oct-15 04:00N 48°29' W 126°15'611.2
2017-Oct-15 03:26N 48°29' W 126°24'  

Dump ship's entire track history